sensor_id;sensor_type;location;lat;lon;timestamp;P1;durP1;ratioP1;P2;durP2;ratioP2
64483;SDS011;50862;51.642;7.964;2022-09-12T00:01:01;8.40;;;7.83;;
64483;SDS011;50862;51.642;7.964;2022-09-12T00:03:32;11.67;;;10.67;;
64483;SDS011;50862;51.642;7.964;2022-09-12T00:06:06;8.83;;;8.23;;
64483;SDS011;50862;51.642;7.964;2022-09-12T00:08:35;12.37;;;11.27;;
64483;SDS011;50862;51.642;7.964;2022-09-12T00:11:04;12.23;;;10.20;;
64483;SDS011;50862;51.642;7.964;2022-09-12T00:13:34;10.37;;;9.47;;
64483;SDS011;50862;51.642;7.964;2022-09-12T00:16:07;11.30;;;10.37;;
64483;SDS011;50862;51.642;7.964;2022-09-12T00:18:43;11.67;;;10.53;;
64483;SDS011;50862;51.642;7.964;2022-09-12T00:21:12;11.10;;;10.10;;
64483;SDS011;50862;51.642;7.964;2022-09-12T00:23:41;10.47;;;9.60;;
64483;SDS011;50862;51.642;7.964;2022-09-12T00:26:10;11.13;;;10.13;;
64483;SDS011;50862;51.642;7.964;2022-09-12T00:28:38;10.67;;;9.57;;
64483;SDS011;50862;51.642;7.964;2022-09-12T00:31:08;10.63;;;9.83;;
64483;SDS011;50862;51.642;7.964;2022-09-12T00:33:38;10.40;;;9.53;;
64483;SDS011;50862;51.642;7.964;2022-09-12T00:36:09;9.40;;;8.60;;
64483;SDS011;50862;51.642;7.964;2022-09-12T00:38:40;9.43;;;8.83;;
64483;SDS011;50862;51.642;7.964;2022-09-12T00:41:10;9.50;;;8.80;;
64483;SDS011;50862;51.642;7.964;2022-09-12T00:43:42;8.57;;;7.80;;
64483;SDS011;50862;51.642;7.964;2022-09-12T00:46:14;7.37;;;6.87;;
64483;SDS011;50862;51.642;7.964;2022-09-12T00:48:51;7.20;;;6.73;;
64483;SDS011;50862;51.642;7.964;2022-09-12T00:51:24;7.83;;;7.33;;
64483;SDS011;50862;51.642;7.964;2022-09-12T00:53:53;7.90;;;7.30;;
64483;SDS011;50862;51.642;7.964;2022-09-12T00:56:22;10.17;;;9.10;;
64483;SDS011;50862;51.642;7.964;2022-09-12T00:58:52;10.70;;;9.70;;
64483;SDS011;50862;51.642;7.964;2022-09-12T01:01:24;9.13;;;8.50;;
64483;SDS011;50862;51.642;7.964;2022-09-12T01:03:57;9.53;;;8.73;;
64483;SDS011;50862;51.642;7.964;2022-09-12T01:06:28;11.80;;;9.97;;
64483;SDS011;50862;51.642;7.964;2022-09-12T01:09:01;9.63;;;8.83;;
64483;SDS011;50862;51.642;7.964;2022-09-12T01:11:30;10.03;;;9.13;;
64483;SDS011;50862;51.642;7.964;2022-09-12T01:14:00;10.37;;;9.47;;
64483;SDS011;50862;51.642;7.964;2022-09-12T01:16:29;9.60;;;8.80;;
64483;SDS011;50862;51.642;7.964;2022-09-12T01:19:01;8.93;;;8.27;;
64483;SDS011;50862;51.642;7.964;2022-09-12T01:21:48;8.63;;;8.03;;
64483;SDS011;50862;51.642;7.964;2022-09-12T01:30:44;9.37;;;8.40;;
64483;SDS011;50862;51.642;7.964;2022-09-12T01:33:38;9.17;;;8.20;;
64483;SDS011;50862;51.642;7.964;2022-09-12T01:36:18;14.60;;;8.77;;
64483;SDS011;50862;51.642;7.964;2022-09-12T01:38:57;8.60;;;7.87;;
64483;SDS011;50862;51.642;7.964;2022-09-12T01:41:29;8.50;;;7.90;;
64483;SDS011;50862;51.642;7.964;2022-09-12T01:44:12;9.03;;;8.13;;
64483;SDS011;50862;51.642;7.964;2022-09-12T01:46:49;10.37;;;9.37;;
64483;SDS011;50862;51.642;7.964;2022-09-12T01:49:22;9.87;;;9.00;;
64483;SDS011;50862;51.642;7.964;2022-09-12T01:51:56;10.13;;;9.23;;
64483;SDS011;50862;51.642;7.964;2022-09-12T01:54:31;9.93;;;9.13;;
64483;SDS011;50862;51.642;7.964;2022-09-12T01:57:06;8.50;;;7.90;;
64483;SDS011;50862;51.642;7.964;2022-09-12T01:59:38;8.63;;;8.00;;
64483;SDS011;50862;51.642;7.964;2022-09-12T02:02:11;8.77;;;8.17;;
64483;SDS011;50862;51.642;7.964;2022-09-12T02:04:44;8.43;;;7.73;;
64483;SDS011;50862;51.642;7.964;2022-09-12T02:07:18;9.03;;;8.23;;
64483;SDS011;50862;51.642;7.964;2022-09-12T02:09:49;9.83;;;8.90;;
64483;SDS011;50862;51.642;7.964;2022-09-12T02:12:23;9.07;;;8.33;;
64483;SDS011;50862;51.642;7.964;2022-09-12T02:15:03;9.57;;;8.77;;
64483;SDS011;50862;51.642;7.964;2022-09-12T02:17:37;9.30;;;8.60;;
64483;SDS011;50862;51.642;7.964;2022-09-12T02:20:10;9.43;;;8.67;;
64483;SDS011;50862;51.642;7.964;2022-09-12T02:23:03;8.77;;;8.07;;
64483;SDS011;50862;51.642;7.964;2022-09-12T02:25:35;8.87;;;8.17;;
64483;SDS011;50862;51.642;7.964;2022-09-12T02:28:09;7.67;;;7.17;;
64483;SDS011;50862;51.642;7.964;2022-09-12T02:30:41;10.07;;;9.17;;
64483;SDS011;50862;51.642;7.964;2022-09-12T02:33:17;9.30;;;8.50;;
64483;SDS011;50862;51.642;7.964;2022-09-12T02:35:52;9.63;;;8.73;;
64483;SDS011;50862;51.642;7.964;2022-09-12T02:38:25;8.60;;;7.90;;
64483;SDS011;50862;51.642;7.964;2022-09-12T02:40:59;8.83;;;8.03;;
64483;SDS011;50862;51.642;7.964;2022-09-12T02:43:28;9.03;;;8.13;;
64483;SDS011;50862;51.642;7.964;2022-09-12T02:45:56;8.57;;;8.03;;
64483;SDS011;50862;51.642;7.964;2022-09-12T02:48:26;10.00;;;8.47;;
64483;SDS011;50862;51.642;7.964;2022-09-12T02:50:57;8.47;;;7.77;;
64483;SDS011;50862;51.642;7.964;2022-09-12T02:53:25;8.70;;;8.00;;
64483;SDS011;50862;51.642;7.964;2022-09-12T02:55:54;8.90;;;8.10;;
64483;SDS011;50862;51.642;7.964;2022-09-12T02:58:23;8.53;;;7.93;;
64483;SDS011;50862;51.642;7.964;2022-09-12T03:00:59;6.90;;;6.50;;
64483;SDS011;50862;51.642;7.964;2022-09-12T03:03:45;6.87;;;6.43;;
64483;SDS011;50862;51.642;7.964;2022-09-12T03:06:27;7.03;;;6.53;;
64483;SDS011;50862;51.642;7.964;2022-09-12T03:09:03;7.30;;;6.70;;
64483;SDS011;50862;51.642;7.964;2022-09-12T03:14:43;6.87;;;6.47;;
64483;SDS011;50862;51.642;7.964;2022-09-12T03:17:29;6.80;;;6.30;;
64483;SDS011;50862;51.642;7.964;2022-09-12T03:20:10;7.63;;;7.03;;
64483;SDS011;50862;51.642;7.964;2022-09-12T03:22:46;8.00;;;7.30;;
64483;SDS011;50862;51.642;7.964;2022-09-12T03:25:20;7.93;;;7.33;;
64483;SDS011;50862;51.642;7.964;2022-09-12T03:27:55;7.67;;;7.00;;
64483;SDS011;50862;51.642;7.964;2022-09-12T03:30:26;8.53;;;7.83;;
64483;SDS011;50862;51.642;7.964;2022-09-12T03:32:54;9.00;;;8.07;;
64483;SDS011;50862;51.642;7.964;2022-09-12T03:35:24;8.63;;;7.87;;
64483;SDS011;50862;51.642;7.964;2022-09-12T03:37:52;8.27;;;7.57;;
64483;SDS011;50862;51.642;7.964;2022-09-12T03:40:20;8.97;;;7.63;;
64483;SDS011;50862;51.642;7.964;2022-09-12T03:42:49;8.97;;;8.17;;
64483;SDS011;50862;51.642;7.964;2022-09-12T03:45:17;8.50;;;7.80;;
64483;SDS011;50862;51.642;7.964;2022-09-12T03:47:45;8.30;;;7.70;;
64483;SDS011;50862;51.642;7.964;2022-09-12T03:50:14;16.53;;;7.10;;
64483;SDS011;50862;51.642;7.964;2022-09-12T03:52:43;8.40;;;7.70;;
64483;SDS011;50862;51.642;7.964;2022-09-12T03:55:11;8.17;;;7.57;;
64483;SDS011;50862;51.642;7.964;2022-09-12T03:57:40;7.47;;;6.97;;
64483;SDS011;50862;51.642;7.964;2022-09-12T04:00:10;8.93;;;8.13;;
64483;SDS011;50862;51.642;7.964;2022-09-12T04:02:44;9.37;;;8.53;;
64483;SDS011;50862;51.642;7.964;2022-09-12T04:05:13;9.33;;;8.53;;
64483;SDS011;50862;51.642;7.964;2022-09-12T04:07:41;7.83;;;7.23;;
64483;SDS011;50862;51.642;7.964;2022-09-12T04:10:11;8.03;;;7.37;;
64483;SDS011;50862;51.642;7.964;2022-09-12T04:12:41;8.30;;;7.50;;
64483;SDS011;50862;51.642;7.964;2022-09-12T04:15:10;8.13;;;7.53;;
64483;SDS011;50862;51.642;7.964;2022-09-12T04:17:38;8.20;;;7.50;;
64483;SDS011;50862;51.642;7.964;2022-09-12T04:20:06;8.03;;;7.43;;
64483;SDS011;50862;51.642;7.964;2022-09-12T04:22:35;8.10;;;7.50;;
64483;SDS011;50862;51.642;7.964;2022-09-12T04:25:04;8.20;;;7.60;;
64483;SDS011;50862;51.642;7.964;2022-09-12T04:27:34;7.70;;;7.10;;
64483;SDS011;50862;51.642;7.964;2022-09-12T04:30:02;8.30;;;7.13;;
64483;SDS011;50862;51.642;7.964;2022-09-12T04:32:31;8.80;;;8.00;;
64483;SDS011;50862;51.642;7.964;2022-09-12T04:35:00;7.67;;;7.17;;
64483;SDS011;50862;51.642;7.964;2022-09-12T04:37:28;8.57;;;7.87;;
64483;SDS011;50862;51.642;7.964;2022-09-12T04:39:56;8.40;;;7.60;;
64483;SDS011;50862;51.642;7.964;2022-09-12T04:42:24;8.47;;;7.73;;
64483;SDS011;50862;51.642;7.964;2022-09-12T04:44:54;8.83;;;7.40;;
64483;SDS011;50862;51.642;7.964;2022-09-12T04:47:22;8.93;;;8.07;;
64483;SDS011;50862;51.642;7.964;2022-09-12T04:49:50;9.30;;;8.50;;
64483;SDS011;50862;51.642;7.964;2022-09-12T04:52:19;8.33;;;7.67;;
64483;SDS011;50862;51.642;7.964;2022-09-12T04:54:47;8.77;;;7.90;;
64483;SDS011;50862;51.642;7.964;2022-09-12T04:57:15;8.70;;;8.00;;
64483;SDS011;50862;51.642;7.964;2022-09-12T04:59:44;8.80;;;7.80;;
64483;SDS011;50862;51.642;7.964;2022-09-12T05:02:13;8.73;;;7.93;;
64483;SDS011;50862;51.642;7.964;2022-09-12T05:04:41;8.57;;;7.77;;
64483;SDS011;50862;51.642;7.964;2022-09-12T05:07:12;9.63;;;8.80;;
64483;SDS011;50862;51.642;7.964;2022-09-12T05:09:40;9.53;;;8.63;;
64483;SDS011;50862;51.642;7.964;2022-09-12T05:12:08;9.57;;;8.13;;
64483;SDS011;50862;51.642;7.964;2022-09-12T05:14:36;10.03;;;8.87;;
64483;SDS011;50862;51.642;7.964;2022-09-12T05:17:05;8.20;;;7.50;;
64483;SDS011;50862;51.642;7.964;2022-09-12T05:19:35;9.17;;;8.27;;
64483;SDS011;50862;51.642;7.964;2022-09-12T05:22:04;11.93;;;7.87;;
64483;SDS011;50862;51.642;7.964;2022-09-12T05:24:32;8.57;;;7.87;;
64483;SDS011;50862;51.642;7.964;2022-09-12T05:27:03;8.70;;;7.83;;
64483;SDS011;50862;51.642;7.964;2022-09-12T05:29:31;9.03;;;8.33;;
64483;SDS011;50862;51.642;7.964;2022-09-12T05:32:00;9.23;;;8.53;;
64483;SDS011;50862;51.642;7.964;2022-09-12T05:34:28;9.17;;;8.33;;
64483;SDS011;50862;51.642;7.964;2022-09-12T05:36:58;8.70;;;8.00;;
64483;SDS011;50862;51.642;7.964;2022-09-12T05:39:26;9.20;;;8.50;;
64483;SDS011;50862;51.642;7.964;2022-09-12T05:41:54;10.03;;;9.13;;
64483;SDS011;50862;51.642;7.964;2022-09-12T05:44:22;9.37;;;8.57;;
64483;SDS011;50862;51.642;7.964;2022-09-12T05:46:51;9.80;;;9.00;;
64483;SDS011;50862;51.642;7.964;2022-09-12T05:49:19;9.73;;;8.93;;
64483;SDS011;50862;51.642;7.964;2022-09-12T05:51:48;10.50;;;9.60;;
64483;SDS011;50862;51.642;7.964;2022-09-12T05:54:18;11.57;;;9.57;;
64483;SDS011;50862;51.642;7.964;2022-09-12T05:56:46;9.93;;;9.10;;
64483;SDS011;50862;51.642;7.964;2022-09-12T05:59:16;10.03;;;9.23;;
64483;SDS011;50862;51.642;7.964;2022-09-12T06:01:45;11.10;;;10.10;;
64483;SDS011;50862;51.642;7.964;2022-09-12T06:04:14;9.93;;;9.13;;
64483;SDS011;50862;51.642;7.964;2022-09-12T06:06:43;9.53;;;8.77;;
64483;SDS011;50862;51.642;7.964;2022-09-12T06:09:12;11.00;;;10.00;;
64483;SDS011;50862;51.642;7.964;2022-09-12T06:11:43;11.23;;;10.23;;
64483;SDS011;50862;51.642;7.964;2022-09-12T06:14:13;11.47;;;10.37;;
64483;SDS011;50862;51.642;7.964;2022-09-12T06:16:42;10.77;;;9.97;;
64483;SDS011;50862;51.642;7.964;2022-09-12T06:19:12;12.23;;;11.13;;
64483;SDS011;50862;51.642;7.964;2022-09-12T06:21:42;11.47;;;10.57;;
64483;SDS011;50862;51.642;7.964;2022-09-12T06:24:10;11.33;;;10.30;;
64483;SDS011;50862;51.642;7.964;2022-09-12T06:26:38;11.63;;;10.73;;
64483;SDS011;50862;51.642;7.964;2022-09-12T06:29:08;14.73;;;11.37;;
64483;SDS011;50862;51.642;7.964;2022-09-12T06:31:38;11.10;;;10.10;;
64483;SDS011;50862;51.642;7.964;2022-09-12T06:34:09;12.00;;;10.83;;
64483;SDS011;50862;51.642;7.964;2022-09-12T06:36:40;12.30;;;11.30;;
64483;SDS011;50862;51.642;7.964;2022-09-12T06:39:10;12.47;;;11.47;;
64483;SDS011;50862;51.642;7.964;2022-09-12T06:41:39;10.93;;;10.10;;
64483;SDS011;50862;51.642;7.964;2022-09-12T06:44:11;11.90;;;10.90;;
64483;SDS011;50862;51.642;7.964;2022-09-12T06:46:41;12.03;;;10.87;;
64483;SDS011;50862;51.642;7.964;2022-09-12T06:49:10;12.00;;;11.00;;
64483;SDS011;50862;51.642;7.964;2022-09-12T06:51:38;13.63;;;12.00;;
64483;SDS011;50862;51.642;7.964;2022-09-12T06:54:08;13.40;;;12.17;;
64483;SDS011;50862;51.642;7.964;2022-09-12T06:56:39;13.93;;;12.83;;
64483;SDS011;50862;51.642;7.964;2022-09-12T06:59:07;13.93;;;12.77;;
64483;SDS011;50862;51.642;7.964;2022-09-12T07:01:36;13.90;;;11.73;;
64483;SDS011;50862;51.642;7.964;2022-09-12T07:04:05;13.63;;;12.53;;
64483;SDS011;50862;51.642;7.964;2022-09-12T07:06:35;14.37;;;13.30;;
64483;SDS011;50862;51.642;7.964;2022-09-12T07:09:06;14.47;;;13.17;;
64483;SDS011;50862;51.642;7.964;2022-09-12T07:11:37;13.83;;;12.57;;
64483;SDS011;50862;51.642;7.964;2022-09-12T07:14:06;15.63;;;14.43;;
64483;SDS011;50862;51.642;7.964;2022-09-12T07:16:37;15.83;;;14.60;;
64483;SDS011;50862;51.642;7.964;2022-09-12T07:19:06;16.23;;;15.00;;
64483;SDS011;50862;51.642;7.964;2022-09-12T07:21:34;13.90;;;12.73;;
64483;SDS011;50862;51.642;7.964;2022-09-12T07:24:05;15.18;;;13.68;;
64483;SDS011;50862;51.642;7.964;2022-09-12T07:26:36;15.95;;;14.50;;
64483;SDS011;50862;51.642;7.964;2022-09-12T07:29:05;15.73;;;14.43;;
64483;SDS011;50862;51.642;7.964;2022-09-12T07:31:55;15.32;;;14.13;;
64483;SDS011;50862;51.642;7.964;2022-09-12T07:34:23;15.82;;;14.63;;
64483;SDS011;50862;51.642;7.964;2022-09-12T07:36:51;17.35;;;15.73;;
64483;SDS011;50862;51.642;7.964;2022-09-12T07:39:19;15.05;;;13.93;;
64483;SDS011;50862;51.642;7.964;2022-09-12T07:41:47;14.68;;;13.50;;
64483;SDS011;50862;51.642;7.964;2022-09-12T07:44:15;16.83;;;15.20;;
64483;SDS011;50862;51.642;7.964;2022-09-12T07:46:43;17.67;;;16.45;;
64483;SDS011;50862;51.642;7.964;2022-09-12T07:49:13;17.17;;;15.88;;
64483;SDS011;50862;51.642;7.964;2022-09-12T07:51:41;16.88;;;15.57;;
64483;SDS011;50862;51.642;7.964;2022-09-12T07:54:09;16.75;;;15.52;;
64483;SDS011;50862;51.642;7.964;2022-09-12T07:56:37;16.73;;;15.52;;
64483;SDS011;50862;51.642;7.964;2022-09-12T07:59:06;16.58;;;15.38;;
64483;SDS011;50862;51.642;7.964;2022-09-12T08:01:34;17.23;;;15.98;;
64483;SDS011;50862;51.642;7.964;2022-09-12T08:04:02;17.55;;;16.25;;
64483;SDS011;50862;51.642;7.964;2022-09-12T08:06:32;18.02;;;16.73;;
64483;SDS011;50862;51.642;7.964;2022-09-12T08:09:02;17.33;;;16.02;;
64483;SDS011;50862;51.642;7.964;2022-09-12T08:11:31;18.35;;;17.05;;
64483;SDS011;50862;51.642;7.964;2022-09-12T08:13:59;17.75;;;16.42;;
64483;SDS011;50862;51.642;7.964;2022-09-12T08:16:28;16.58;;;15.52;;
64483;SDS011;50862;51.642;7.964;2022-09-12T08:18:58;17.67;;;16.17;;
64483;SDS011;50862;51.642;7.964;2022-09-12T08:21:28;17.33;;;16.00;;
64483;SDS011;50862;51.642;7.964;2022-09-12T08:23:59;16.90;;;15.43;;
64483;SDS011;50862;51.642;7.964;2022-09-12T08:26:30;17.45;;;16.08;;
64483;SDS011;50862;51.642;7.964;2022-09-12T08:28:59;16.63;;;15.38;;
64483;SDS011;50862;51.642;7.964;2022-09-12T08:31:27;17.63;;;16.33;;
64483;SDS011;50862;51.642;7.964;2022-09-12T08:33:57;17.98;;;16.60;;
64483;SDS011;50862;51.642;7.964;2022-09-12T08:36:26;18.00;;;16.77;;
64483;SDS011;50862;51.642;7.964;2022-09-12T08:38:55;20.25;;;17.20;;
64483;SDS011;50862;51.642;7.964;2022-09-12T08:41:29;18.83;;;17.60;;
64483;SDS011;50862;51.642;7.964;2022-09-12T08:47:00;19.52;;;18.05;;
64483;SDS011;50862;51.642;7.964;2022-09-12T08:49:46;19.58;;;18.08;;
64483;SDS011;50862;51.642;7.964;2022-09-12T08:52:21;20.20;;;18.70;;
64483;SDS011;50862;51.642;7.964;2022-09-12T08:54:54;18.05;;;16.73;;
64483;SDS011;50862;51.642;7.964;2022-09-12T08:57:24;21.13;;;19.67;;
64483;SDS011;50862;51.642;7.964;2022-09-12T08:59:52;21.05;;;19.38;;
64483;SDS011;50862;51.642;7.964;2022-09-12T09:02:38;22.00;;;20.35;;
64483;SDS011;50862;51.642;7.964;2022-09-12T09:05:32;18.45;;;16.85;;
64483;SDS011;50862;51.642;7.964;2022-09-12T09:08:15;20.40;;;19.15;;
64483;SDS011;50862;51.642;7.964;2022-09-12T09:10:58;24.50;;;22.77;;
64483;SDS011;50862;51.642;7.964;2022-09-12T09:13:38;22.67;;;20.98;;
64483;SDS011;50862;51.642;7.964;2022-09-12T09:16:33;21.55;;;20.15;;
64483;SDS011;50862;51.642;7.964;2022-09-12T09:19:04;21.95;;;20.25;;
64483;SDS011;50862;51.642;7.964;2022-09-12T09:21:39;23.73;;;22.05;;
64483;SDS011;50862;51.642;7.964;2022-09-12T09:24:12;24.20;;;22.50;;
64483;SDS011;50862;51.642;7.964;2022-09-12T09:26:44;22.52;;;20.83;;
64483;SDS011;50862;51.642;7.964;2022-09-12T09:29:17;21.30;;;19.92;;
64483;SDS011;50862;51.642;7.964;2022-09-12T09:31:47;22.00;;;20.52;;
64483;SDS011;50862;51.642;7.964;2022-09-12T09:34:19;21.75;;;20.23;;
64483;SDS011;50862;51.642;7.964;2022-09-12T09:36:49;22.05;;;20.48;;
64483;SDS011;50862;51.642;7.964;2022-09-12T09:39:21;23.98;;;22.38;;
64483;SDS011;50862;51.642;7.964;2022-09-12T09:42:18;21.85;;;20.25;;
64483;SDS011;50862;51.642;7.964;2022-09-12T09:44:55;23.23;;;21.73;;
64483;SDS011;50862;51.642;7.964;2022-09-12T09:47:26;21.38;;;19.70;;
64483;SDS011;50862;51.642;7.964;2022-09-12T09:49:54;22.20;;;20.73;;
64483;SDS011;50862;51.642;7.964;2022-09-12T09:52:23;24.63;;;23.02;;
64483;SDS011;50862;51.642;7.964;2022-09-12T09:54:56;22.67;;;21.27;;
64483;SDS011;50862;51.642;7.964;2022-09-12T09:57:39;22.15;;;20.65;;
64483;SDS011;50862;51.642;7.964;2022-09-12T10:00:21;24.58;;;22.95;;
64483;SDS011;50862;51.642;7.964;2022-09-12T10:02:59;24.75;;;22.92;;
64483;SDS011;50862;51.642;7.964;2022-09-12T10:05:43;25.50;;;23.80;;
64483;SDS011;50862;51.642;7.964;2022-09-12T10:08:18;23.25;;;21.45;;
64483;SDS011;50862;51.642;7.964;2022-09-12T10:10:53;22.92;;;20.98;;
64483;SDS011;50862;51.642;7.964;2022-09-12T10:13:23;25.67;;;23.38;;
64483;SDS011;50862;51.642;7.964;2022-09-12T10:15:59;23.60;;;22.10;;
64483;SDS011;50862;51.642;7.964;2022-09-12T10:18:32;22.42;;;20.95;;
64483;SDS011;50862;51.642;7.964;2022-09-12T10:21:17;22.38;;;20.92;;
64483;SDS011;50862;51.642;7.964;2022-09-12T10:23:50;24.23;;;22.52;;
64483;SDS011;50862;51.642;7.964;2022-09-12T10:26:26;21.85;;;20.35;;
64483;SDS011;50862;51.642;7.964;2022-09-12T10:29:04;22.17;;;20.73;;
64483;SDS011;50862;51.642;7.964;2022-09-12T10:31:43;23.67;;;22.17;;
64483;SDS011;50862;51.642;7.964;2022-09-12T10:34:19;23.80;;;22.30;;
64483;SDS011;50862;51.642;7.964;2022-09-12T10:36:51;23.48;;;22.08;;
64483;SDS011;50862;51.642;7.964;2022-09-12T10:39:24;25.20;;;23.27;;
64483;SDS011;50862;51.642;7.964;2022-09-12T10:41:53;22.35;;;21.05;;
64483;SDS011;50862;51.642;7.964;2022-09-12T10:44:23;24.13;;;22.63;;
64483;SDS011;50862;51.642;7.964;2022-09-12T10:46:54;24.08;;;22.63;;
64483;SDS011;50862;51.642;7.964;2022-09-12T10:49:24;23.65;;;22.35;;
64483;SDS011;50862;51.642;7.964;2022-09-12T10:51:56;21.65;;;20.35;;
64483;SDS011;50862;51.642;7.964;2022-09-12T10:54:42;22.63;;;21.10;;
64483;SDS011;50862;51.642;7.964;2022-09-12T10:57:24;23.20;;;21.77;;
64483;SDS011;50862;51.642;7.964;2022-09-12T11:00:10;21.25;;;19.92;;
64483;SDS011;50862;51.642;7.964;2022-09-12T11:02:53;25.10;;;23.52;;
64483;SDS011;50862;51.642;7.964;2022-09-12T11:05:39;22.58;;;21.15;;
64483;SDS011;50862;51.642;7.964;2022-09-12T11:08:21;21.95;;;20.50;;
64483;SDS011;50862;51.642;7.964;2022-09-12T11:11:06;23.58;;;22.15;;
64483;SDS011;50862;51.642;7.964;2022-09-12T11:13:50;23.48;;;22.00;;
64483;SDS011;50862;51.642;7.964;2022-09-12T11:16:29;19.48;;;18.38;;
64483;SDS011;50862;51.642;7.964;2022-09-12T11:19:16;22.33;;;20.92;;
64483;SDS011;50862;51.642;7.964;2022-09-12T11:22:04;21.83;;;20.35;;
64483;SDS011;50862;51.642;7.964;2022-09-12T11:24:46;23.15;;;21.67;;
64483;SDS011;50862;51.642;7.964;2022-09-12T11:27:31;21.58;;;20.30;;
64483;SDS011;50862;51.642;7.964;2022-09-12T11:30:07;21.70;;;20.40;;
64483;SDS011;50862;51.642;7.964;2022-09-12T11:32:50;18.80;;;17.70;;
64483;SDS011;50862;51.642;7.964;2022-09-12T11:35:32;19.75;;;18.55;;
64483;SDS011;50862;51.642;7.964;2022-09-12T11:38:13;20.52;;;19.40;;
64483;SDS011;50862;51.642;7.964;2022-09-12T11:40:52;18.02;;;16.60;;
64483;SDS011;50862;51.642;7.964;2022-09-12T11:43:32;20.50;;;19.30;;
64483;SDS011;50862;51.642;7.964;2022-09-12T11:46:09;19.73;;;18.33;;
64483;SDS011;50862;51.642;7.964;2022-09-12T11:48:45;19.92;;;18.83;;
64483;SDS011;50862;51.642;7.964;2022-09-12T11:51:19;20.52;;;19.27;;
64483;SDS011;50862;51.642;7.964;2022-09-12T11:53:59;19.08;;;18.08;;
64483;SDS011;50862;51.642;7.964;2022-09-12T11:56:39;19.63;;;18.42;;
64483;SDS011;50862;51.642;7.964;2022-09-12T11:59:14;18.92;;;17.90;;
64483;SDS011;50862;51.642;7.964;2022-09-12T12:01:51;19.50;;;18.50;;
64483;SDS011;50862;51.642;7.964;2022-09-12T12:04:33;21.58;;;20.45;;
64483;SDS011;50862;51.642;7.964;2022-09-12T12:07:08;20.10;;;19.15;;
64483;SDS011;50862;51.642;7.964;2022-09-12T12:09:43;20.77;;;19.55;;
64483;SDS011;50862;51.642;7.964;2022-09-12T12:12:14;19.83;;;18.63;;
64483;SDS011;50862;51.642;7.964;2022-09-12T12:14:46;20.05;;;19.00;;
64483;SDS011;50862;51.642;7.964;2022-09-12T12:17:16;19.58;;;18.58;;
64483;SDS011;50862;51.642;7.964;2022-09-12T12:19:47;21.83;;;20.73;;
64483;SDS011;50862;51.642;7.964;2022-09-12T12:22:33;19.98;;;18.83;;
64483;SDS011;50862;51.642;7.964;2022-09-12T12:25:14;19.90;;;18.83;;
64483;SDS011;50862;51.642;7.964;2022-09-12T12:27:55;21.30;;;20.10;;
64483;SDS011;50862;51.642;7.964;2022-09-12T12:36:34;17.58;;;16.67;;
64483;SDS011;50862;51.642;7.964;2022-09-12T12:45:48;19.52;;;18.33;;
64483;SDS011;50862;51.642;7.964;2022-09-12T12:48:32;19.25;;;18.20;;
64483;SDS011;50862;51.642;7.964;2022-09-12T12:51:32;20.05;;;19.05;;
64483;SDS011;50862;51.642;7.964;2022-09-12T12:54:47;17.88;;;16.98;;
64483;SDS011;50862;51.642;7.964;2022-09-12T12:57:28;19.50;;;18.50;;
64483;SDS011;50862;51.642;7.964;2022-09-12T13:00:04;20.00;;;19.00;;
64483;SDS011;50862;51.642;7.964;2022-09-12T13:02:37;18.55;;;17.45;;
64483;SDS011;50862;51.642;7.964;2022-09-12T13:05:16;19.65;;;18.65;;
64483;SDS011;50862;51.642;7.964;2022-09-12T13:07:51;19.60;;;18.30;;
64483;SDS011;50862;51.642;7.964;2022-09-12T13:10:22;18.95;;;17.95;;
64483;SDS011;50862;51.642;7.964;2022-09-12T13:12:54;19.77;;;18.77;;
64483;SDS011;50862;51.642;7.964;2022-09-12T13:15:45;21.08;;;19.88;;
64483;SDS011;50862;51.642;7.964;2022-09-12T13:18:17;23.05;;;21.83;;
64483;SDS011;50862;51.642;7.964;2022-09-12T13:20:51;20.88;;;19.75;;
64483;SDS011;50862;51.642;7.964;2022-09-12T13:23:26;20.98;;;19.88;;
64483;SDS011;50862;51.642;7.964;2022-09-12T13:25:56;20.23;;;18.75;;
64483;SDS011;50862;51.642;7.964;2022-09-12T13:28:26;18.00;;;17.05;;
64483;SDS011;50862;51.642;7.964;2022-09-12T13:30:57;18.58;;;17.58;;
64483;SDS011;50862;51.642;7.964;2022-09-12T13:33:33;19.08;;;18.08;;
64483;SDS011;50862;51.642;7.964;2022-09-12T13:36:09;19.25;;;18.15;;
64483;SDS011;50862;51.642;7.964;2022-09-12T13:38:57;18.60;;;17.70;;
64483;SDS011;50862;51.642;7.964;2022-09-12T13:41:39;20.05;;;18.95;;
64483;SDS011;50862;51.642;7.964;2022-09-12T13:44:38;18.60;;;17.70;;
64483;SDS011;50862;51.642;7.964;2022-09-12T13:47:09;19.52;;;18.52;;
64483;SDS011;50862;51.642;7.964;2022-09-12T13:49:42;20.60;;;19.60;;
64483;SDS011;50862;51.642;7.964;2022-09-12T13:52:14;20.75;;;19.63;;
64483;SDS011;50862;51.642;7.964;2022-09-12T13:54:45;21.45;;;20.35;;
64483;SDS011;50862;51.642;7.964;2022-09-12T13:57:30;21.13;;;20.13;;
64483;SDS011;50862;51.642;7.964;2022-09-12T14:00:02;20.40;;;19.40;;
64483;SDS011;50862;51.642;7.964;2022-09-12T14:02:33;20.08;;;18.98;;
64483;SDS011;50862;51.642;7.964;2022-09-12T14:05:18;19.33;;;18.42;;
64483;SDS011;50862;51.642;7.964;2022-09-12T14:07:49;21.52;;;20.23;;
64483;SDS011;50862;51.642;7.964;2022-09-12T14:10:28;19.20;;;18.35;;
64483;SDS011;50862;51.642;7.964;2022-09-12T14:12:58;20.13;;;19.13;;
64483;SDS011;50862;51.642;7.964;2022-09-12T14:15:29;19.40;;;18.45;;
64483;SDS011;50862;51.642;7.964;2022-09-12T14:17:59;18.40;;;17.52;;
64483;SDS011;50862;51.642;7.964;2022-09-12T14:20:30;18.08;;;17.08;;
64483;SDS011;50862;51.642;7.964;2022-09-12T14:23:02;19.85;;;18.85;;
64483;SDS011;50862;51.642;7.964;2022-09-12T14:25:34;17.42;;;16.52;;
64483;SDS011;50862;51.642;7.964;2022-09-12T14:28:09;19.17;;;18.27;;
64483;SDS011;50862;51.642;7.964;2022-09-12T14:30:39;16.45;;;15.48;;
64483;SDS011;50862;51.642;7.964;2022-09-12T14:33:17;20.00;;;19.00;;
64483;SDS011;50862;51.642;7.964;2022-09-12T14:35:48;16.98;;;16.10;;
64483;SDS011;50862;51.642;7.964;2022-09-12T14:38:21;19.85;;;18.85;;
64483;SDS011;50862;51.642;7.964;2022-09-12T14:40:57;18.55;;;17.65;;
64483;SDS011;50862;51.642;7.964;2022-09-12T14:43:27;20.48;;;19.48;;
64483;SDS011;50862;51.642;7.964;2022-09-12T14:45:58;17.73;;;16.75;;
64483;SDS011;50862;51.642;7.964;2022-09-12T14:48:28;18.50;;;17.50;;
64483;SDS011;50862;51.642;7.964;2022-09-12T14:51:00;17.88;;;17.00;;
64483;SDS011;50862;51.642;7.964;2022-09-12T14:53:32;19.05;;;18.08;;
64483;SDS011;50862;51.642;7.964;2022-09-12T14:56:05;19.95;;;18.88;;
64483;SDS011;50862;51.642;7.964;2022-09-12T14:58:35;18.65;;;17.75;;
64483;SDS011;50862;51.642;7.964;2022-09-12T15:03:53;19.77;;;18.73;;
64483;SDS011;50862;51.642;7.964;2022-09-12T15:06:26;16.25;;;15.45;;
64483;SDS011;50862;51.642;7.964;2022-09-12T15:08:56;18.73;;;17.80;;
64483;SDS011;50862;51.642;7.964;2022-09-12T15:11:25;19.10;;;18.10;;
64483;SDS011;50862;51.642;7.964;2022-09-12T15:13:53;17.33;;;16.45;;
64483;SDS011;50862;51.642;7.964;2022-09-12T15:16:22;18.52;;;17.52;;
64483;SDS011;50862;51.642;7.964;2022-09-12T15:18:50;18.05;;;17.17;;
64483;SDS011;50862;51.642;7.964;2022-09-12T15:21:18;18.20;;;17.20;;
64483;SDS011;50862;51.642;7.964;2022-09-12T15:23:49;18.45;;;17.50;;
64483;SDS011;50862;51.642;7.964;2022-09-12T15:26:19;18.20;;;17.30;;
64483;SDS011;50862;51.642;7.964;2022-09-12T15:28:48;19.58;;;18.50;;
64483;SDS011;50862;51.642;7.964;2022-09-12T15:31:19;18.05;;;17.17;;
64483;SDS011;50862;51.642;7.964;2022-09-12T15:33:50;16.83;;;15.93;;